createdAt,value
2022-08-07T00:00:30.173Z,14.50
2022-08-07T00:02:56.979Z,14.50
2022-08-07T00:05:24.957Z,14.50
2022-08-07T00:08:00.116Z,14.50
2022-08-07T00:10:30.935Z,14.50
2022-08-07T00:13:02.207Z,14.50
2022-08-07T00:15:37.877Z,14.40
2022-08-07T00:18:05.684Z,14.40
2022-08-07T00:20:34.306Z,14.30
2022-08-07T00:23:02.577Z,14.20
2022-08-07T00:25:37.533Z,14.20
2022-08-07T00:28:08.845Z,14.20
2022-08-07T00:30:37.538Z,14.20
2022-08-07T00:33:05.206Z,14.20
2022-08-07T00:35:40.922Z,14.20
2022-08-07T00:38:07.727Z,14.20
2022-08-07T00:40:40.459Z,14.20
2022-08-07T00:43:58.998Z,14.20
2022-08-07T00:46:01.849Z,14.10
2022-08-07T00:48:32.150Z,14.10
2022-08-07T00:51:00.839Z,14.00
2022-08-07T00:53:38.560Z,14.00
2022-08-07T00:56:13.857Z,13.90
2022-08-07T00:58:46.715Z,13.80
2022-08-07T01:01:16.100Z,13.80
2022-08-07T01:03:55.485Z,13.80
2022-08-07T01:06:28.424Z,13.80
2022-08-07T01:08:58.424Z,13.80
2022-08-07T01:12:10.211Z,13.70
2022-08-07T01:14:15.442Z,13.70
2022-08-07T01:16:46.811Z,13.70
2022-08-07T01:19:19.146Z,13.60
2022-08-07T01:21:53.511Z,13.60
2022-08-07T01:24:28.069Z,13.60
2022-08-07T01:27:00.196Z,13.50
2022-08-07T01:29:31.300Z,13.60
2022-08-07T01:31:59.807Z,13.50
2022-08-07T01:34:31.793Z,13.50
2022-08-07T01:37:03.211Z,13.50
2022-08-07T01:39:41.154Z,13.50
2022-08-07T01:42:40.000Z,13.40
2022-08-07T01:45:22.970Z,13.50
2022-08-07T01:48:20.113Z,13.40
2022-08-07T01:50:57.287Z,13.50
2022-08-07T01:54:12.283Z,13.40
2022-08-07T01:56:32.854Z,13.40
2022-08-07T01:59:16.018Z,13.30
2022-08-07T02:02:01.671Z,13.30
2022-08-07T02:04:38.702Z,13.30
2022-08-07T02:07:12.075Z,13.20
2022-08-07T02:09:52.967Z,13.20
2022-08-07T02:12:30.930Z,13.20
2022-08-07T02:15:01.547Z,13.10
2022-08-07T02:17:38.613Z,13.10
2022-08-07T02:20:17.520Z,13.00
2022-08-07T02:22:57.575Z,13.10
2022-08-07T02:26:10.981Z,13.00
2022-08-07T02:28:24.421Z,13.00
2022-08-07T02:30:53.672Z,13.00
2022-08-07T02:33:22.975Z,13.00
2022-08-07T02:36:28.944Z,12.90
2022-08-07T02:38:39.845Z,12.90
2022-08-07T02:41:21.749Z,12.90
2022-08-07T02:43:51.211Z,12.80
2022-08-07T02:46:25.773Z,12.90
2022-08-07T02:48:55.180Z,12.80
2022-08-07T02:51:42.085Z,12.80
2022-08-07T02:54:13.896Z,12.80
2022-08-07T02:56:42.548Z,12.80
2022-08-07T02:59:14.619Z,12.80
2022-08-07T03:01:42.490Z,12.80
2022-08-07T03:04:15.891Z,12.80
2022-08-07T03:06:46.022Z,12.80
2022-08-07T03:09:42.307Z,12.70
2022-08-07T03:12:06.937Z,12.70
2022-08-07T03:14:37.262Z,12.70
2022-08-07T03:17:05.680Z,12.70
2022-08-07T03:19:36.960Z,12.70
2022-08-07T03:22:06.912Z,12.70
2022-08-07T03:24:37.204Z,12.60
2022-08-07T03:27:08.880Z,12.60
2022-08-07T03:29:49.617Z,12.60
2022-08-07T03:32:24.952Z,12.60
2022-08-07T03:35:00.906Z,12.50
2022-08-07T03:37:53.837Z,12.50
2022-08-07T03:40:31.154Z,12.40
2022-08-07T03:43:10.016Z,12.40
2022-08-07T03:45:47.420Z,12.30
2022-08-07T03:48:16.921Z,12.30
2022-08-07T03:50:55.770Z,12.30
2022-08-07T03:53:50.083Z,12.30
2022-08-07T03:56:32.759Z,12.30
2022-08-07T03:59:12.916Z,12.30
2022-08-07T04:01:45.772Z,12.30
2022-08-07T04:04:17.895Z,12.30
2022-08-07T04:06:51.634Z,12.30
2022-08-07T04:09:23.058Z,12.30
2022-08-07T04:12:25.796Z,12.30
2022-08-07T04:14:43.731Z,12.20
2022-08-07T04:17:19.906Z,12.20
2022-08-07T04:19:54.916Z,12.20
2022-08-07T04:22:28.969Z,12.20
2022-08-07T04:25:01.368Z,12.20
2022-08-07T04:27:35.406Z,12.20
2022-08-07T04:30:21.017Z,12.20
2022-08-07T04:33:01.433Z,12.20
2022-08-07T04:35:37.993Z,12.20
2022-08-07T04:38:11.449Z,12.20
2022-08-07T04:40:51.722Z,12.20
2022-08-07T04:44:13.231Z,12.30
2022-08-07T04:46:34.466Z,12.30
2022-08-07T04:49:39.760Z,12.30
2022-08-07T04:52:25.205Z,12.40
2022-08-07T04:55:14.897Z,12.40
2022-08-07T04:58:15.845Z,12.50
2022-08-07T05:00:57.499Z,12.50
2022-08-07T05:04:06.866Z,12.50
2022-08-07T05:06:43.039Z,12.60
2022-08-07T05:09:16.082Z,12.60
2022-08-07T05:11:57.407Z,12.60
2022-08-07T05:14:55.988Z,12.60
2022-08-07T05:17:52.291Z,12.70
2022-08-07T05:20:25.747Z,12.70
2022-08-07T05:23:02.080Z,12.80
2022-08-07T05:25:54.333Z,12.80
2022-08-07T05:28:23.321Z,12.90
2022-08-07T05:30:57.551Z,12.90
2022-08-07T05:33:28.803Z,13.00
2022-08-07T05:35:58.462Z,13.10
2022-08-07T05:39:01.140Z,13.10
2022-08-07T05:41:18.289Z,13.10
2022-08-07T05:44:08.334Z,13.20
2022-08-07T05:46:43.336Z,13.20
2022-08-07T05:49:13.151Z,13.30
2022-08-07T05:51:46.552Z,13.30
2022-08-07T05:54:31.233Z,13.40
2022-08-07T05:57:06.715Z,13.50
2022-08-07T05:59:46.550Z,13.50
2022-08-07T06:02:30.543Z,13.60
2022-08-07T06:05:10.990Z,13.60
2022-08-07T06:08:14.135Z,13.70
2022-08-07T06:10:32.028Z,13.80
2022-08-07T06:13:02.226Z,13.90
2022-08-07T06:15:42.402Z,14.00
2022-08-07T06:18:14.120Z,14.10
2022-08-07T06:20:51.127Z,14.20
2022-08-07T06:24:38.744Z,14.30
2022-08-07T06:26:27.344Z,14.30
2022-08-07T06:28:59.535Z,14.40
2022-08-07T06:31:46.936Z,14.40
2022-08-07T06:34:20.523Z,14.50
2022-08-07T06:36:52.523Z,14.60
2022-08-07T06:40:13.427Z,14.60
2022-08-07T06:42:32.975Z,14.70
2022-08-07T06:45:16.873Z,14.80
2022-08-07T06:47:58.594Z,14.90
2022-08-07T06:50:33.608Z,14.90
2022-08-07T06:53:05.581Z,15.00
2022-08-07T06:55:53.756Z,15.10
2022-08-07T06:58:29.358Z,15.20
2022-08-07T07:01:08.274Z,15.20
2022-08-07T07:03:37.532Z,15.30
2022-08-07T07:06:23.865Z,15.40
2022-08-07T07:08:53.582Z,15.40
2022-08-07T07:12:07.516Z,15.50
2022-08-07T07:14:10.229Z,15.60
2022-08-07T07:16:49.780Z,15.70
2022-08-07T07:19:55.265Z,15.70
2022-08-07T07:22:35.783Z,15.80
2022-08-07T07:26:31.248Z,16.00
2022-08-07T07:28:42.206Z,16.10
2022-08-07T07:31:21.475Z,16.20
2022-08-07T07:33:56.909Z,16.30
2022-08-07T07:36:32.470Z,16.40
2022-08-07T07:39:01.186Z,16.50
2022-08-07T07:41:50.373Z,16.50
2022-08-07T07:44:26.706Z,16.70
2022-08-07T07:47:04.371Z,16.80
2022-08-07T07:50:36.532Z,16.80
2022-08-07T07:52:31.115Z,17.00
2022-08-07T07:54:59.321Z,17.10
2022-08-07T07:57:43.622Z,17.20
2022-08-07T08:00:21.067Z,17.20
2022-08-07T08:03:09.448Z,17.30
2022-08-07T08:05:55.098Z,17.40
2022-08-07T08:08:34.741Z,17.40
2022-08-07T08:11:16.432Z,17.50
2022-08-07T08:13:53.340Z,17.50
2022-08-07T08:16:29.615Z,17.60
2022-08-07T08:19:00.247Z,17.70
2022-08-07T08:21:55.963Z,17.80
2022-08-07T08:24:51.314Z,17.80
2022-08-07T08:27:37.023Z,17.90
2022-08-07T08:30:09.107Z,17.90
2022-08-07T08:32:49.036Z,18.00
2022-08-07T08:35:23.099Z,18.10
2022-08-07T08:38:03.417Z,18.10
2022-08-07T08:40:43.853Z,18.30
2022-08-07T08:43:42.908Z,18.40
2022-08-07T08:46:44.886Z,18.40
2022-08-07T08:49:33.276Z,18.60
2022-08-07T08:52:24.251Z,18.80
2022-08-07T08:55:54.304Z,19.00
2022-08-07T08:58:28.526Z,19.30
2022-08-07T09:01:15.142Z,19.40
2022-08-07T09:04:11.232Z,19.60
2022-08-07T09:07:02.174Z,19.80
2022-08-07T09:09:57.205Z,20.10
2022-08-07T09:12:39.067Z,20.50
2022-08-07T09:16:22.033Z,20.80
2022-08-07T09:19:00.495Z,21.10
2022-08-07T09:22:22.339Z,21.40
2022-08-07T09:24:54.980Z,21.80
2022-08-07T09:27:59.641Z,22.10
2022-08-07T09:30:36.768Z,22.30
2022-08-07T09:33:53.176Z,22.60
2022-08-07T09:36:36.967Z,22.90
2022-08-07T09:39:54.869Z,23.70
2022-08-07T09:42:35.432Z,24.20
2022-08-07T09:47:24.704Z,24.30
2022-08-07T09:48:50.184Z,24.40
2022-08-07T09:52:16.254Z,24.60
2022-08-07T09:54:47.691Z,24.80
2022-08-07T09:57:46.407Z,24.80
2022-08-07T10:00:16.237Z,25.00
2022-08-07T10:02:56.407Z,24.80
2022-08-07T10:05:59.177Z,24.90
2022-08-07T10:09:07.036Z,25.10
2022-08-07T10:12:04.208Z,25.30
2022-08-07T10:15:00.613Z,25.10
2022-08-07T10:18:00.868Z,25.60
2022-08-07T10:20:57.232Z,25.80
2022-08-07T10:24:05.006Z,26.00
2022-08-07T10:27:10.426Z,26.30
2022-08-07T10:30:02.105Z,26.50
2022-08-07T10:32:52.542Z,26.80
2022-08-07T10:35:57.542Z,26.70
2022-08-07T10:38:53.132Z,27.10
2022-08-07T10:41:51.470Z,26.90
2022-08-07T10:44:39.997Z,26.20
2022-08-07T10:47:52.722Z,26.10
2022-08-07T10:50:25.908Z,26.00
2022-08-07T10:53:21.422Z,25.90
2022-08-07T10:56:02.237Z,25.70
2022-08-07T10:58:46.190Z,25.80
2022-08-07T11:01:51.447Z,26.00
2022-08-07T11:05:10.170Z,26.40
2022-08-07T11:08:04.009Z,26.70
2022-08-07T11:10:49.980Z,27.30
2022-08-07T11:14:46.242Z,27.50
2022-08-07T11:16:51.348Z,27.60
2022-08-07T11:19:39.914Z,27.60
2022-08-07T11:22:26.678Z,27.50
2022-08-07T11:25:23.221Z,27.70
2022-08-07T11:28:15.560Z,27.90
2022-08-07T11:31:02.587Z,28.00
2022-08-07T11:33:59.872Z,28.20
2022-08-07T11:36:58.118Z,28.40
2022-08-07T11:39:59.361Z,28.50
2022-08-07T11:42:45.027Z,28.30
2022-08-07T11:45:35.435Z,28.40
2022-08-07T11:48:35.707Z,28.90
2022-08-07T11:51:44.887Z,29.00
2022-08-07T11:54:37.543Z,28.80
2022-08-07T11:57:20.566Z,28.60
2022-08-07T12:00:27.546Z,28.50
2022-08-07T12:03:42.284Z,28.20
2022-08-07T12:06:39.774Z,27.70
2022-08-07T12:09:16.617Z,27.50
2022-08-07T12:12:12.032Z,27.60
2022-08-07T12:14:55.442Z,27.70
2022-08-07T12:17:33.481Z,27.80
2022-08-07T12:20:19.937Z,27.70
2022-08-07T12:23:21.613Z,27.60
2022-08-07T12:26:28.951Z,27.50
2022-08-07T12:29:03.616Z,27.50
2022-08-07T12:32:02.115Z,27.40
2022-08-07T12:34:34.724Z,27.30
2022-08-07T12:37:08.781Z,27.30
2022-08-07T12:39:50.724Z,27.40
2022-08-07T12:42:27.612Z,27.30
2022-08-07T12:44:57.837Z,27.40
2022-08-07T12:47:45.914Z,27.20
2022-08-07T12:50:38.352Z,27.00
2022-08-07T12:53:19.040Z,26.90
2022-08-07T12:56:18.829Z,26.70
2022-08-07T12:58:53.159Z,26.70
2022-08-07T13:02:02.856Z,26.60
2022-08-07T13:06:04.790Z,26.90
2022-08-07T13:08:43.414Z,27.20
2022-08-07T13:12:02.213Z,27.20
2022-08-07T13:14:51.207Z,27.20
2022-08-07T13:17:41.049Z,26.70
2022-08-07T13:20:30.377Z,26.40
2022-08-07T13:24:00.125Z,26.40
2022-08-07T13:26:03.663Z,26.30
2022-08-07T13:28:57.931Z,26.20
2022-08-07T13:31:55.147Z,26.40
2022-08-07T13:34:44.852Z,26.50
2022-08-07T13:37:58.737Z,26.40
2022-08-07T13:40:34.846Z,26.40
2022-08-07T13:43:15.271Z,26.30
2022-08-07T13:46:20.725Z,26.40
2022-08-07T13:48:39.025Z,26.20
2022-08-07T13:51:27.352Z,26.00
2022-08-07T13:54:10.308Z,26.00
2022-08-07T13:56:56.082Z,26.00
2022-08-07T13:59:31.577Z,26.00
2022-08-07T14:02:10.483Z,26.10
2022-08-07T14:04:54.658Z,26.20
2022-08-07T14:07:26.558Z,26.30
2022-08-07T14:10:14.925Z,26.30
2022-08-07T14:12:55.225Z,26.30
2022-08-07T14:15:34.871Z,26.00
2022-08-07T14:18:24.438Z,25.90
2022-08-07T14:21:11.834Z,25.60
2022-08-07T14:24:01.089Z,25.60
2022-08-07T14:26:50.742Z,25.70
2022-08-07T14:30:06.548Z,25.80
2022-08-07T14:32:29.931Z,25.80
2022-08-07T14:35:01.406Z,25.70
2022-08-07T14:37:36.195Z,25.50
2022-08-07T14:40:17.391Z,25.30
2022-08-07T14:43:58.299Z,25.30
2022-08-07T14:46:00.829Z,25.30
2022-08-07T14:48:35.673Z,25.50
2022-08-07T14:51:16.225Z,25.30
2022-08-07T14:56:33.554Z,25.00
2022-08-07T15:05:20.355Z,25.10
2022-08-07T15:07:52.223Z,25.10
2022-08-07T15:13:25.351Z,25.10
2022-08-07T15:16:00.013Z,25.20
2022-08-07T15:18:41.669Z,25.10
2022-08-07T15:25:13.969Z,24.70
2022-08-07T15:27:05.500Z,24.80
2022-08-07T15:30:04.651Z,24.90
2022-08-07T15:32:39.953Z,24.80
2022-08-07T15:35:17.041Z,24.80
2022-08-07T15:38:04.375Z,24.80
2022-08-07T15:41:00.442Z,24.70
2022-08-07T15:43:56.300Z,24.60
2022-08-07T15:46:31.581Z,24.60
2022-08-07T15:49:12.530Z,24.50
2022-08-07T15:54:40.788Z,24.30
2022-08-07T15:57:40.085Z,24.30
2022-08-07T16:00:31.100Z,24.20
2022-08-07T16:03:02.570Z,24.10
2022-08-07T16:05:34.673Z,24.10
2022-08-07T16:08:32.379Z,24.20
2022-08-07T16:11:26.781Z,24.10
2022-08-07T16:14:28.287Z,24.10
2022-08-07T16:18:01.739Z,24.20
2022-08-07T16:20:55.187Z,24.10
2022-08-07T16:24:02.589Z,24.10
2022-08-07T16:26:58.797Z,24.00
2022-08-07T16:30:11.485Z,23.90
2022-08-07T16:32:34.552Z,23.80
2022-08-07T16:35:59.082Z,23.90
2022-08-07T16:38:57.464Z,23.80
2022-08-07T16:41:17.838Z,23.70
2022-08-07T16:44:46.302Z,23.70
2022-08-07T16:47:51.171Z,23.60
2022-08-07T16:50:57.962Z,23.40
2022-08-07T16:54:06.767Z,23.50
2022-08-07T16:56:53.276Z,23.50
2022-08-07T16:59:25.980Z,23.50
2022-08-07T17:03:04.908Z,23.50
2022-08-07T17:06:01.765Z,23.50
2022-08-07T17:09:09.807Z,23.50
2022-08-07T17:12:04.139Z,23.40
2022-08-07T17:15:03.162Z,23.30
2022-08-07T17:17:46.080Z,23.30
2022-08-07T17:20:33.054Z,23.20
2022-08-07T17:23:02.373Z,23.00
2022-08-07T17:25:47.946Z,23.00
2022-08-07T17:28:59.352Z,22.80
2022-08-07T17:32:03.055Z,22.80
2022-08-07T17:35:51.508Z,22.60
2022-08-07T17:38:33.657Z,22.50
2022-08-07T17:42:01.140Z,22.40
2022-08-07T17:44:42.735Z,22.40
2022-08-07T17:47:38.612Z,22.40
2022-08-07T17:50:20.683Z,22.40
2022-08-07T17:52:55.414Z,22.20
2022-08-07T17:55:54.894Z,22.20
2022-08-07T17:58:57.085Z,22.20
2022-08-07T18:01:37.375Z,22.20
2022-08-07T18:04:35.100Z,22.20
2022-08-07T18:07:20.815Z,22.20
2022-08-07T18:10:05.853Z,22.10
2022-08-07T18:13:10.238Z,22.00
2022-08-07T18:15:58.744Z,21.90
2022-08-07T18:18:44.761Z,21.90
2022-08-07T18:21:51.773Z,21.80
2022-08-07T18:24:53.567Z,21.70
2022-08-07T18:27:38.510Z,21.70
2022-08-07T18:30:32.976Z,21.60
2022-08-07T18:33:29.048Z,21.60
2022-08-07T18:36:01.912Z,21.60
2022-08-07T18:38:54.780Z,21.40
2022-08-07T18:41:46.026Z,21.30
2022-08-07T18:45:39.850Z,21.20
2022-08-07T18:47:44.529Z,21.20
2022-08-07T18:50:47.565Z,21.10
2022-08-07T18:53:57.599Z,21.10
2022-08-07T18:57:23.264Z,21.00
2022-08-07T19:00:33.497Z,21.00
2022-08-07T19:03:35.604Z,20.80
2022-08-07T19:06:16.484Z,20.80
2022-08-07T19:08:55.833Z,20.70
2022-08-07T19:12:03.797Z,20.70
2022-08-07T19:15:03.586Z,20.60
2022-08-07T19:18:34.944Z,20.60
2022-08-07T19:21:13.488Z,20.60
2022-08-07T19:23:58.586Z,20.50
2022-08-07T19:26:55.521Z,20.50
2022-08-07T19:31:04.153Z,20.40
2022-08-07T19:32:26.934Z,20.30
2022-08-07T19:35:01.632Z,20.30
2022-08-07T19:37:55.449Z,20.20
2022-08-07T19:40:30.794Z,20.20
2022-08-07T19:42:58.929Z,20.10
2022-08-07T19:46:05.340Z,20.10
2022-08-07T19:48:29.420Z,20.00
2022-08-07T19:51:19.924Z,20.00
2022-08-07T19:54:32.105Z,19.90
2022-08-07T19:57:59.905Z,19.80
2022-08-07T19:59:42.042Z,19.70
2022-08-07T20:02:19.051Z,19.70
2022-08-07T20:04:51.703Z,19.60
2022-08-07T20:07:45.633Z,19.60
2022-08-07T20:10:37.369Z,19.50
2022-08-07T20:13:27.013Z,19.40
2022-08-07T20:15:58.216Z,19.40
2022-08-07T20:18:32.394Z,19.30
2022-08-07T20:21:22.130Z,19.30
2022-08-07T20:24:03.696Z,19.20
2022-08-07T20:26:45.276Z,19.20
2022-08-07T20:29:49.324Z,19.20
2022-08-07T20:32:22.363Z,19.20
2022-08-07T20:34:57.499Z,19.20
2022-08-07T20:37:30.020Z,19.20
2022-08-07T20:40:05.055Z,19.10
2022-08-07T20:42:54.056Z,19.10
2022-08-07T20:45:33.298Z,19.00
2022-08-07T20:48:28.606Z,19.00
2022-08-07T20:51:00.024Z,18.90
2022-08-07T20:54:04.336Z,18.80
2022-08-07T20:56:16.561Z,18.70
2022-08-07T20:58:53.247Z,18.60
2022-08-07T21:01:25.742Z,18.60
2022-08-07T21:04:22.931Z,18.50
2022-08-07T21:06:53.432Z,18.50
2022-08-07T21:09:24.587Z,18.40
2022-08-07T21:11:57.573Z,18.30
2022-08-07T21:14:33.617Z,18.30
2022-08-07T21:18:03.737Z,18.20
2022-08-07T21:20:00.782Z,18.20
2022-08-07T21:22:45.144Z,18.20
2022-08-07T21:25:42.489Z,18.20
2022-08-07T21:28:49.268Z,18.10
2022-08-07T21:31:49.601Z,18.10
2022-08-07T21:34:20.575Z,18.00
2022-08-07T21:37:13.248Z,18.00
2022-08-07T21:39:56.620Z,17.90
2022-08-07T21:42:52.926Z,17.90
2022-08-07T21:46:09.315Z,17.80
2022-08-07T21:48:34.424Z,17.70
2022-08-07T21:51:20.035Z,17.60
2022-08-07T21:53:54.834Z,17.50
2022-08-07T21:56:59.966Z,17.40
2022-08-07T22:00:05.253Z,17.40
2022-08-07T22:02:51.810Z,17.30
2022-08-07T22:05:46.296Z,17.30
2022-08-07T22:08:14.502Z,17.30
2022-08-07T22:10:50.122Z,17.30
2022-08-07T22:13:24.167Z,17.20
2022-08-07T22:16:39.248Z,17.10
2022-08-07T22:19:36.960Z,17.10
2022-08-07T22:22:28.902Z,17.10
2022-08-07T22:25:18.434Z,17.10
2022-08-07T22:28:07.587Z,17.10
2022-08-07T22:31:05.074Z,17.00
2022-08-07T22:33:57.055Z,17.00
2022-08-07T22:36:52.946Z,16.90
2022-08-07T22:39:52.880Z,16.90
2022-08-07T22:42:29.571Z,16.90
2022-08-07T22:45:02.372Z,16.90
2022-08-07T22:51:07.688Z,16.80
2022-08-07T22:54:07.709Z,16.70
2022-08-07T22:57:07.254Z,16.70
2022-08-07T22:59:42.904Z,16.60
2022-08-07T23:02:50.285Z,16.60
2022-08-07T23:06:10.341Z,16.50
2022-08-07T23:08:47.890Z,16.50
2022-08-07T23:11:59.292Z,16.30
2022-08-07T23:14:33.636Z,16.20
2022-08-07T23:17:22.412Z,16.10
2022-08-07T23:20:21.688Z,16.10
2022-08-07T23:24:04.392Z,16.10
2022-08-07T23:26:25.215Z,16.10
2022-08-07T23:29:43.877Z,16.10
2022-08-07T23:34:20.272Z,16.00
2022-08-07T23:35:44.033Z,16.10
2022-08-07T23:38:36.571Z,16.00
2022-08-07T23:41:33.523Z,16.00
2022-08-07T23:44:19.332Z,15.90
2022-08-07T23:47:21.397Z,15.90
2022-08-07T23:50:02.630Z,15.80
2022-08-07T23:53:00.749Z,15.70
2022-08-07T23:56:11.746Z,15.70
2022-08-07T23:58:56.587Z,15.60
